createdAt,value
2022-11-23T00:01:50.484Z,81.86
2022-11-23T00:04:23.396Z,82.39
2022-11-23T00:06:50.663Z,82.22
2022-11-23T00:09:17.602Z,82.19
2022-11-23T00:11:48.047Z,82.75
2022-11-23T00:14:24.592Z,81.86
2022-11-23T00:16:55.463Z,82.44
2022-11-23T00:19:29.881Z,83.69
2022-11-23T00:21:57.013Z,84.19
2022-11-23T00:24:24.107Z,85.07
2022-11-23T00:26:51.449Z,84.80
2022-11-23T00:29:18.620Z,84.17
2022-11-23T00:32:07.063Z,85.78
2022-11-23T00:37:22.557Z,87.27
2022-11-23T00:40:16.761Z,85.78
2022-11-23T00:42:44.573Z,85.27
2022-11-23T00:45:12.133Z,84.48
2022-11-23T00:47:40.132Z,85.72
2022-11-23T00:50:18.472Z,85.21
2022-11-23T00:52:45.850Z,83.29
2022-11-23T00:55:13.175Z,84.30
2022-11-23T00:57:40.129Z,83.73
2022-11-23T01:00:08.263Z,85.04
2022-11-23T01:02:36.349Z,86.20
2022-11-23T01:05:04.160Z,84.90
2022-11-23T01:07:31.229Z,86.56
2022-11-23T01:09:58.271Z,86.20
2022-11-23T01:12:25.175Z,86.26
2022-11-23T01:14:54.623Z,85.45
2022-11-23T01:17:21.567Z,87.71
2022-11-23T01:22:32.597Z,88.03
2022-11-23T01:25:00.466Z,88.68
2022-11-23T01:27:30.543Z,89.69
2022-11-23T01:30:01.415Z,90.16
2022-11-23T01:32:29.418Z,90.85
2022-11-23T01:34:56.630Z,91.06
2022-11-23T01:37:23.760Z,91.99
2022-11-23T01:39:50.913Z,92.52
2022-11-23T01:42:18.185Z,93.01
2022-11-23T01:44:45.601Z,92.90
2022-11-23T01:47:12.938Z,93.22
2022-11-23T01:49:43.746Z,93.55
2022-11-23T01:52:17.094Z,93.46
2022-11-23T01:54:57.189Z,94.90
2022-11-23T01:57:40.528Z,95.45
2022-11-23T02:00:17.803Z,95.56
2022-11-23T02:03:06.609Z,96.99
2022-11-23T02:05:42.836Z,97.02
2022-11-23T02:08:11.830Z,96.70
2022-11-23T02:10:39.025Z,96.37
2022-11-23T02:13:09.130Z,96.76
2022-11-23T02:15:37.231Z,96.64
2022-11-23T02:18:10.726Z,96.44
2022-11-23T02:20:37.798Z,96.82
2022-11-23T02:23:08.868Z,97.07
2022-11-23T02:25:47.717Z,97.44
2022-11-23T02:28:24.177Z,98.49
2022-11-23T02:31:02.158Z,97.87
2022-11-23T02:33:30.368Z,99.08
2022-11-23T02:36:00.689Z,99.20
2022-11-23T02:38:34.143Z,99.17
2022-11-23T02:41:01.436Z,98.70
2022-11-23T02:43:28.577Z,98.26
2022-11-23T02:46:04.052Z,99.14
2022-11-23T02:48:34.128Z,98.78
2022-11-23T02:51:01.945Z,99.10
2022-11-23T02:53:28.924Z,99.82
2022-11-23T02:55:56.601Z,98.82
2022-11-23T02:58:23.651Z,99.63
2022-11-23T03:00:51.011Z,98.22
2022-11-23T03:03:18.263Z,97.89
2022-11-23T03:05:45.599Z,97.84
2022-11-23T03:08:12.989Z,98.78
2022-11-23T03:10:40.118Z,98.42
2022-11-23T03:13:07.322Z,98.56
2022-11-23T03:15:34.352Z,97.89
2022-11-23T03:18:04.891Z,99.48
2022-11-23T03:20:34.752Z,100.00
2022-11-23T03:23:01.941Z,100.00
2022-11-23T03:25:29.219Z,100.00
2022-11-23T03:27:56.469Z,100.00
2022-11-23T03:30:30.028Z,100.00
2022-11-23T03:32:57.292Z,100.00
2022-11-23T03:35:28.951Z,100.00
2022-11-23T03:38:03.515Z,100.00
2022-11-23T03:40:30.708Z,100.00
2022-11-23T03:43:00.057Z,100.00
2022-11-23T03:45:44.300Z,100.00
2022-11-23T03:48:20.520Z,100.00
2022-11-23T03:50:48.555Z,100.00
2022-11-23T03:53:15.321Z,100.00
2022-11-23T03:55:42.288Z,100.00
2022-11-23T03:58:11.946Z,100.00
2022-11-23T04:00:39.118Z,100.00
2022-11-23T04:03:08.891Z,100.00
2022-11-23T04:05:36.244Z,100.00
2022-11-23T04:08:03.325Z,100.00
2022-11-23T04:10:30.413Z,100.00
2022-11-23T04:13:01.018Z,100.00
2022-11-23T04:15:31.541Z,100.00
2022-11-23T04:17:59.284Z,100.00
2022-11-23T04:20:29.467Z,100.00
2022-11-23T04:22:58.875Z,100.00
2022-11-23T04:25:26.400Z,100.00
2022-11-23T04:27:58.971Z,100.00
2022-11-23T04:30:35.111Z,100.00
2022-11-23T04:33:05.274Z,100.00
2022-11-23T04:35:41.802Z,100.00
2022-11-23T04:38:14.328Z,100.00
2022-11-23T04:40:47.160Z,100.00
2022-11-23T04:43:19.346Z,100.00
2022-11-23T04:45:46.773Z,100.00
2022-11-23T04:48:14.024Z,100.00
2022-11-23T04:50:46.595Z,100.00
2022-11-23T04:53:14.398Z,100.00
2022-11-23T04:55:43.178Z,100.00
2022-11-23T04:58:10.281Z,100.00
2022-11-23T05:00:37.312Z,100.00
2022-11-23T05:03:04.444Z,100.00
2022-11-23T05:05:31.604Z,100.00
2022-11-23T05:07:59.482Z,100.00
2022-11-23T05:10:26.487Z,100.00
2022-11-23T05:12:53.785Z,100.00
2022-11-23T05:15:21.020Z,100.00
2022-11-23T05:17:48.018Z,100.00
2022-11-23T05:20:15.499Z,100.00
2022-11-23T05:22:42.480Z,100.00
2022-11-23T05:25:09.801Z,100.00
2022-11-23T05:27:37.140Z,100.00
2022-11-23T05:30:04.736Z,100.00
2022-11-23T05:32:31.810Z,100.00
2022-11-23T05:34:58.834Z,100.00
2022-11-23T05:37:25.754Z,100.00
2022-11-23T05:39:52.627Z,100.00
2022-11-23T05:42:19.490Z,100.00
2022-11-23T05:44:46.438Z,100.00
2022-11-23T05:47:13.383Z,100.00
2022-11-23T05:49:40.445Z,100.00
2022-11-23T05:52:07.351Z,100.00
2022-11-23T05:54:34.670Z,100.00
2022-11-23T05:57:01.714Z,100.00
2022-11-23T05:59:28.628Z,100.00
2022-11-23T06:01:55.512Z,100.00
2022-11-23T06:04:22.368Z,100.00
2022-11-23T06:06:49.428Z,100.00
2022-11-23T06:09:16.341Z,100.00
2022-11-23T06:11:44.953Z,100.00
2022-11-23T06:14:14.391Z,100.00
2022-11-23T06:16:41.577Z,100.00
2022-11-23T06:19:08.619Z,100.00
2022-11-23T06:21:35.583Z,100.00
2022-11-23T06:24:02.573Z,100.00
2022-11-23T06:26:29.473Z,100.00
2022-11-23T06:28:56.507Z,100.00
2022-11-23T06:31:23.447Z,100.00
2022-11-23T06:33:52.346Z,100.00
2022-11-23T06:36:20.240Z,100.00
2022-11-23T06:38:47.374Z,100.00
2022-11-23T06:41:14.448Z,100.00
2022-11-23T06:43:41.401Z,100.00
2022-11-23T06:46:08.462Z,100.00
2022-11-23T06:48:35.448Z,100.00
2022-11-23T06:51:02.441Z,100.00
2022-11-23T06:53:30.332Z,100.00
2022-11-23T06:56:00.777Z,100.00
2022-11-23T06:58:28.254Z,100.00
2022-11-23T07:00:55.532Z,100.00
2022-11-23T07:03:24.819Z,100.00
2022-11-23T07:05:51.897Z,100.00
2022-11-23T07:08:18.852Z,100.00
2022-11-23T07:10:46.353Z,100.00
2022-11-23T07:13:13.474Z,100.00
2022-11-23T07:15:41.864Z,100.00
2022-11-23T07:18:11.887Z,100.00
2022-11-23T07:20:39.152Z,100.00
2022-11-23T07:23:08.173Z,100.00
2022-11-23T07:25:36.948Z,100.00
2022-11-23T07:28:05.503Z,100.00
2022-11-23T07:30:33.844Z,100.00
2022-11-23T07:33:09.178Z,100.00
2022-11-23T07:35:37.704Z,100.00
2022-11-23T07:38:06.387Z,100.00
2022-11-23T07:40:33.275Z,100.00
2022-11-23T07:43:01.986Z,100.00
2022-11-23T07:45:29.726Z,100.00
2022-11-23T07:48:04.814Z,100.00
2022-11-23T07:50:31.968Z,99.83
2022-11-23T07:52:59.342Z,99.19
2022-11-23T07:55:26.531Z,98.61
2022-11-23T07:57:54.605Z,97.02
2022-11-23T08:00:23.329Z,95.92
2022-11-23T08:03:19.521Z,95.42
2022-11-23T08:05:37.249Z,95.43
2022-11-23T08:08:04.322Z,94.01
2022-11-23T08:10:32.082Z,94.55
2022-11-23T08:13:01.851Z,94.24
2022-11-23T08:15:29.054Z,93.77
2022-11-23T08:17:57.434Z,92.35
2022-11-23T08:20:25.433Z,90.56
2022-11-23T08:22:53.086Z,90.51
2022-11-23T08:25:20.032Z,89.78
2022-11-23T08:27:47.107Z,89.02
2022-11-23T08:30:14.824Z,86.95
2022-11-23T08:32:41.708Z,86.51
2022-11-23T08:35:08.632Z,86.28
2022-11-23T08:37:35.603Z,86.04
2022-11-23T08:40:02.561Z,85.87
2022-11-23T08:42:29.653Z,85.75
2022-11-23T08:44:56.656Z,85.71
2022-11-23T08:47:23.592Z,86.33
2022-11-23T08:49:50.567Z,86.41
2022-11-23T08:52:17.432Z,86.21
2022-11-23T08:54:44.449Z,85.79
2022-11-23T08:57:11.471Z,85.89
2022-11-23T08:59:38.476Z,86.24
2022-11-23T09:02:05.465Z,86.51
2022-11-23T09:04:33.418Z,86.88
2022-11-23T09:07:03.112Z,86.19
2022-11-23T09:09:33.029Z,86.76
2022-11-23T09:12:03.068Z,86.11
2022-11-23T09:14:30.554Z,86.08
2022-11-23T09:16:57.893Z,85.13
2022-11-23T09:19:24.977Z,85.76
2022-11-23T09:21:52.218Z,85.37
2022-11-23T09:24:19.691Z,85.54
2022-11-23T09:26:48.888Z,85.61
2022-11-23T09:29:18.238Z,85.39
2022-11-23T09:31:45.552Z,84.68
2022-11-23T09:34:14.269Z,84.80
2022-11-23T09:36:41.415Z,83.73
2022-11-23T09:39:08.813Z,83.42
2022-11-23T09:42:14.451Z,83.01
2022-11-23T09:44:59.724Z,82.77
2022-11-23T09:47:38.847Z,82.12
2022-11-23T09:50:09.390Z,81.84
2022-11-23T09:52:40.523Z,81.35
2022-11-23T09:55:51.630Z,80.34
2022-11-23T09:58:22.199Z,81.11
2022-11-23T10:00:56.111Z,80.69
2022-11-23T10:03:23.373Z,79.84
2022-11-23T10:06:05.826Z,79.88
2022-11-23T10:09:04.653Z,78.94
2022-11-23T10:11:50.150Z,78.60
2022-11-23T10:14:52.046Z,78.71
2022-11-23T10:17:41.757Z,76.53
2022-11-23T10:20:30.349Z,75.47
2022-11-23T10:23:02.466Z,75.77
2022-11-23T10:25:39.086Z,75.21
2022-11-23T10:28:19.481Z,75.89
2022-11-23T10:31:08.081Z,76.37
2022-11-23T10:33:43.054Z,76.55
2022-11-23T10:36:11.598Z,76.88
2022-11-23T10:38:38.597Z,76.88
2022-11-23T10:41:13.826Z,76.66
2022-11-23T10:44:09.937Z,76.09
2022-11-23T10:46:37.804Z,75.72
2022-11-23T10:49:15.598Z,74.42
2022-11-23T10:51:49.891Z,73.93
2022-11-23T10:54:21.846Z,74.47
2022-11-23T10:56:50.797Z,74.08
2022-11-23T10:59:38.950Z,74.79
2022-11-23T11:02:15.907Z,74.60
2022-11-23T11:04:43.803Z,74.17
2022-11-23T11:07:13.431Z,74.68
2022-11-23T11:09:40.456Z,73.91
2022-11-23T11:12:19.235Z,74.40
2022-11-23T11:15:10.735Z,74.15
2022-11-23T11:17:39.874Z,74.20
2022-11-23T11:20:28.259Z,73.70
2022-11-23T11:23:03.618Z,73.21
2022-11-23T11:25:37.326Z,72.83
2022-11-23T11:28:25.067Z,74.16
2022-11-23T11:31:13.763Z,74.51
2022-11-23T11:33:53.989Z,73.87
2022-11-23T11:36:22.939Z,73.56
2022-11-23T11:39:17.105Z,71.94
2022-11-23T11:41:44.455Z,72.79
2022-11-23T11:44:21.338Z,70.87
2022-11-23T11:46:57.982Z,71.21
2022-11-23T11:49:33.528Z,71.15
2022-11-23T11:52:09.347Z,70.90
2022-11-23T11:54:47.350Z,72.28
2022-11-23T11:57:22.206Z,72.56
2022-11-23T11:59:53.452Z,72.08
2022-11-23T12:02:43.446Z,72.66
2022-11-23T12:05:27.341Z,71.74
2022-11-23T12:08:09.134Z,72.03
2022-11-23T12:10:53.674Z,71.69
2022-11-23T12:13:24.986Z,70.95
2022-11-23T12:16:05.357Z,70.42
2022-11-23T12:18:46.597Z,70.62
2022-11-23T12:21:32.326Z,70.86
2022-11-23T12:24:17.454Z,70.64
2022-11-23T12:27:02.165Z,68.63
2022-11-23T12:30:12.420Z,69.41
2022-11-23T12:32:39.391Z,68.18
2022-11-23T12:35:14.267Z,68.41
2022-11-23T12:37:41.190Z,67.75
2022-11-23T12:40:15.633Z,63.14
2022-11-23T12:42:46.922Z,63.57
2022-11-23T12:45:18.993Z,63.98
2022-11-23T12:48:11.252Z,65.19
2022-11-23T12:50:55.553Z,63.15
2022-11-23T12:53:35.245Z,64.08
2022-11-23T12:56:14.463Z,63.11
2022-11-23T12:58:44.295Z,63.43
2022-11-23T13:01:15.173Z,65.09
2022-11-23T13:03:57.169Z,66.24
2022-11-23T13:06:33.165Z,66.64
2022-11-23T13:09:41.853Z,66.38
2022-11-23T13:12:34.212Z,67.07
2022-11-23T13:15:47.281Z,68.65
2022-11-23T13:18:33.314Z,69.52
2022-11-23T13:21:15.324Z,70.19
2022-11-23T13:23:42.620Z,69.19
2022-11-23T13:26:17.386Z,70.05
2022-11-23T13:28:46.218Z,70.50
2022-11-23T13:31:16.251Z,71.61
2022-11-23T13:33:46.183Z,72.19
2022-11-23T13:37:11.091Z,71.98
2022-11-23T13:39:49.745Z,73.29
2022-11-23T13:42:17.710Z,73.38
2022-11-23T13:44:44.894Z,73.94
2022-11-23T13:47:17.666Z,74.24
2022-11-23T13:49:52.958Z,75.04
2022-11-23T13:52:22.878Z,73.65
2022-11-23T13:55:11.324Z,74.64
2022-11-23T13:57:46.818Z,74.46
2022-11-23T14:00:44.930Z,74.94
2022-11-23T14:03:47.647Z,74.25
2022-11-23T14:06:28.898Z,74.99
2022-11-23T14:09:16.357Z,75.65
2022-11-23T14:11:51.694Z,75.20
2022-11-23T14:14:29.347Z,75.72
2022-11-23T14:17:09.067Z,75.94
2022-11-23T14:19:51.419Z,76.75
2022-11-23T14:22:21.965Z,77.09
2022-11-23T14:25:04.068Z,77.88
2022-11-23T14:27:59.869Z,78.84
2022-11-23T14:30:48.158Z,78.13
2022-11-23T14:33:34.012Z,79.04
2022-11-23T14:36:15.534Z,79.39
2022-11-23T14:39:26.709Z,79.80
2022-11-23T14:41:59.425Z,80.99
2022-11-23T14:44:31.000Z,82.05
2022-11-23T14:47:05.287Z,81.96
2022-11-23T14:49:32.804Z,83.44
2022-11-23T14:52:03.662Z,84.46
2022-11-23T14:54:32.584Z,84.88
2022-11-23T14:57:04.989Z,86.10
2022-11-23T14:59:38.251Z,86.14
2022-11-23T15:02:16.777Z,87.32
2022-11-23T15:05:08.751Z,87.78
2022-11-23T15:07:45.532Z,88.75
2022-11-23T15:10:43.121Z,89.25
2022-11-23T15:13:22.315Z,89.54
2022-11-23T15:15:57.824Z,90.78
2022-11-23T15:18:34.872Z,91.43
2022-11-23T15:21:10.189Z,91.45
2022-11-23T15:23:43.420Z,92.41
2022-11-23T15:26:34.681Z,93.00
2022-11-23T15:29:19.157Z,93.30
2022-11-23T15:32:06.829Z,94.92
2022-11-23T15:34:33.426Z,95.22
2022-11-23T15:37:01.558Z,95.90
2022-11-23T15:39:29.040Z,96.63
2022-11-23T15:41:58.303Z,96.31
2022-11-23T15:47:30.610Z,96.78
2022-11-23T15:50:02.472Z,96.72
2022-11-23T15:52:38.967Z,97.28
2022-11-23T15:55:13.300Z,97.49
2022-11-23T15:57:41.887Z,97.21
2022-11-23T16:00:23.997Z,97.02
2022-11-23T16:02:51.766Z,97.80
2022-11-23T16:05:24.447Z,98.04
2022-11-23T16:07:57.577Z,98.00
2022-11-23T16:10:31.121Z,99.32
2022-11-23T16:13:23.670Z,98.36
2022-11-23T16:16:00.724Z,98.21
2022-11-23T16:18:28.554Z,98.44
2022-11-23T16:21:03.213Z,99.02
2022-11-23T16:24:24.268Z,98.96
2022-11-23T16:31:15.730Z,100.00
2022-11-23T16:33:57.319Z,100.00
2022-11-23T16:36:28.310Z,100.00
2022-11-23T16:39:05.974Z,100.00
2022-11-23T16:41:36.544Z,100.00
2022-11-23T16:44:04.378Z,100.00
2022-11-23T16:46:43.447Z,100.00
2022-11-23T16:49:23.204Z,100.00
2022-11-23T16:52:06.351Z,100.00
2022-11-23T16:54:37.828Z,100.00
2022-11-23T16:57:06.411Z,100.00
2022-11-23T17:00:07.134Z,100.00
2022-11-23T17:02:25.247Z,100.00
2022-11-23T17:07:50.578Z,100.00
2022-11-23T17:10:22.329Z,100.00
2022-11-23T17:13:03.167Z,100.00
2022-11-23T17:15:31.484Z,100.00
2022-11-23T17:17:58.892Z,100.00
2022-11-23T17:20:26.278Z,100.00
2022-11-23T17:22:57.699Z,100.00
2022-11-23T17:25:36.510Z,100.00
2022-11-23T17:28:14.163Z,100.00
2022-11-23T17:30:42.184Z,100.00
2022-11-23T17:33:15.594Z,100.00
2022-11-23T17:35:43.542Z,100.00
2022-11-23T17:38:18.248Z,100.00
2022-11-23T17:40:46.236Z,100.00
2022-11-23T17:43:16.465Z,100.00
2022-11-23T17:45:49.741Z,100.00
2022-11-23T17:48:31.473Z,100.00
2022-11-23T17:51:04.685Z,100.00
2022-11-23T17:53:32.622Z,100.00
2022-11-23T17:56:17.202Z,100.00
2022-11-23T17:58:45.131Z,100.00
2022-11-23T18:01:31.703Z,100.00
2022-11-23T18:04:25.034Z,100.00
2022-11-23T18:06:54.468Z,100.00
2022-11-23T18:09:55.250Z,100.00
2022-11-23T18:12:25.319Z,100.00
2022-11-23T18:14:52.920Z,100.00
2022-11-23T18:17:24.491Z,100.00
2022-11-23T18:19:55.264Z,100.00
2022-11-23T18:22:22.769Z,100.00
2022-11-23T18:24:53.648Z,100.00
2022-11-23T18:33:00.037Z,100.00
2022-11-23T18:35:27.848Z,100.00
2022-11-23T18:37:55.553Z,100.00
2022-11-23T18:40:23.465Z,100.00
2022-11-23T18:42:50.563Z,100.00
2022-11-23T18:45:17.731Z,100.00
2022-11-23T18:47:49.931Z,100.00
2022-11-23T18:50:17.544Z,100.00
2022-11-23T18:52:44.969Z,100.00
2022-11-23T18:55:12.210Z,100.00
2022-11-23T18:57:39.271Z,100.00
2022-11-23T19:00:08.220Z,100.00
2022-11-23T19:02:39.260Z,100.00
2022-11-23T19:05:09.738Z,100.00
2022-11-23T19:07:36.975Z,100.00
2022-11-23T19:10:11.458Z,100.00
2022-11-23T19:12:38.534Z,100.00
2022-11-23T19:15:07.044Z,100.00
2022-11-23T19:17:34.994Z,100.00
2022-11-23T19:20:11.191Z,100.00
2022-11-23T19:22:47.403Z,100.00
2022-11-23T19:25:18.351Z,100.00
2022-11-23T19:27:49.350Z,100.00
2022-11-23T19:30:17.463Z,100.00
2022-11-23T19:32:47.774Z,100.00
2022-11-23T19:35:15.351Z,100.00
2022-11-23T19:37:50.157Z,100.00
2022-11-23T19:40:20.834Z,100.00
2022-11-23T19:42:48.252Z,100.00
2022-11-23T19:48:02.242Z,100.00
2022-11-23T19:50:36.145Z,100.00
2022-11-23T19:53:12.354Z,100.00
2022-11-23T19:55:43.235Z,100.00
2022-11-23T19:58:10.522Z,100.00
2022-11-23T20:00:46.121Z,100.00
2022-11-23T20:03:40.480Z,100.00
2022-11-23T20:06:21.522Z,100.00
2022-11-23T20:08:58.074Z,100.00
2022-11-23T20:11:29.681Z,100.00
2022-11-23T20:13:57.862Z,100.00
2022-11-23T20:16:27.242Z,100.00
2022-11-23T20:19:07.200Z,100.00
2022-11-23T20:21:43.853Z,100.00
2022-11-23T20:24:32.834Z,100.00
2022-11-23T20:27:09.041Z,100.00
2022-11-23T20:29:45.714Z,100.00
2022-11-23T20:32:13.242Z,100.00
2022-11-23T20:34:43.892Z,100.00
2022-11-23T20:37:14.466Z,100.00
2022-11-23T20:39:55.418Z,100.00
2022-11-23T20:42:33.991Z,100.00
2022-11-23T20:45:04.568Z,100.00
2022-11-23T20:47:44.448Z,100.00
2022-11-23T20:50:12.186Z,100.00
2022-11-23T20:52:39.872Z,100.00
2022-11-23T20:55:11.176Z,100.00
2022-11-23T20:57:41.391Z,100.00
2022-11-23T21:00:12.379Z,100.00
2022-11-23T21:02:42.893Z,100.00
2022-11-23T21:05:21.410Z,100.00
2022-11-23T21:07:57.979Z,100.00
2022-11-23T21:10:47.259Z,100.00
2022-11-23T21:13:49.530Z,100.00
2022-11-23T21:16:53.600Z,100.00
2022-11-23T21:19:50.708Z,100.00
2022-11-23T21:22:19.186Z,100.00
2022-11-23T21:24:55.506Z,100.00
2022-11-23T21:27:50.230Z,100.00
2022-11-23T21:30:17.650Z,100.00
2022-11-23T21:32:49.516Z,100.00
2022-11-23T21:35:31.612Z,100.00
2022-11-23T21:37:59.309Z,100.00
2022-11-23T21:40:33.251Z,100.00
2022-11-23T21:43:00.715Z,100.00
2022-11-23T21:45:46.788Z,100.00
2022-11-23T21:48:20.455Z,100.00
2022-11-23T21:50:48.800Z,100.00
2022-11-23T21:53:16.025Z,100.00
2022-11-23T21:56:31.384Z,100.00
2022-11-23T21:59:01.608Z,100.00
2022-11-23T22:01:43.018Z,100.00
2022-11-23T22:04:22.368Z,100.00
2022-11-23T22:07:02.715Z,100.00
2022-11-23T22:09:32.920Z,100.00
2022-11-23T22:12:59.730Z,100.00
2022-11-23T22:15:00.911Z,100.00
2022-11-23T22:17:31.140Z,100.00
2022-11-23T22:20:10.821Z,100.00
2022-11-23T22:22:38.012Z,100.00
2022-11-23T22:25:08.082Z,100.00
2022-11-23T22:27:36.777Z,100.00
2022-11-23T22:30:04.249Z,100.00
2022-11-23T22:32:31.947Z,100.00
2022-11-23T22:34:59.005Z,100.00
2022-11-23T22:37:26.591Z,100.00
2022-11-23T22:39:53.684Z,100.00
2022-11-23T22:42:20.723Z,100.00
2022-11-23T22:44:47.990Z,100.00
2022-11-23T22:47:19.779Z,100.00
2022-11-23T22:49:47.262Z,100.00
2022-11-23T22:52:14.828Z,100.00
2022-11-23T22:54:42.454Z,100.00
2022-11-23T22:57:09.476Z,100.00
2022-11-23T22:59:36.388Z,100.00
2022-11-23T23:02:03.551Z,100.00
2022-11-23T23:04:30.863Z,100.00
2022-11-23T23:07:03.797Z,100.00
2022-11-23T23:09:33.770Z,100.00
2022-11-23T23:12:01.187Z,100.00
2022-11-23T23:14:28.798Z,100.00
2022-11-23T23:16:56.112Z,100.00
2022-11-23T23:19:23.594Z,100.00
2022-11-23T23:21:50.640Z,100.00
2022-11-23T23:24:17.863Z,100.00
2022-11-23T23:26:45.071Z,100.00
2022-11-23T23:29:12.238Z,100.00
2022-11-23T23:31:39.366Z,100.00
2022-11-23T23:34:06.777Z,100.00
2022-11-23T23:36:36.733Z,100.00
2022-11-23T23:39:06.981Z,100.00
2022-11-23T23:41:37.107Z,100.00
2022-11-23T23:44:19.392Z,100.00
2022-11-23T23:46:49.095Z,100.00
2022-11-23T23:49:16.283Z,100.00
2022-11-23T23:51:46.445Z,100.00
2022-11-23T23:54:15.887Z,100.00
2022-11-23T23:56:42.888Z,100.00
2022-11-23T23:59:10.168Z,100.00
